sensor_id;sensor_type;location;lat;lon;timestamp;pressure;altitude;pressure_sealevel;temperature;humidity
18988;BME280;5494;51.796;10.952;2024-01-30T00:01:29;100174.34;;;8.97;100.00
18988;BME280;5494;51.796;10.952;2024-01-30T00:03:57;100168.78;;;9.11;100.00
18988;BME280;5494;51.796;10.952;2024-01-30T00:06:27;100176.03;;;8.98;100.00
18988;BME280;5494;51.796;10.952;2024-01-30T00:08:55;100175.19;;;8.98;100.00
18988;BME280;5494;51.796;10.952;2024-01-30T00:11:24;100167.56;;;8.92;100.00
18988;BME280;5494;51.796;10.952;2024-01-30T00:13:53;100172.81;;;8.89;100.00
18988;BME280;5494;51.796;10.952;2024-01-30T00:16:22;100169.84;;;8.68;100.00
18988;BME280;5494;51.796;10.952;2024-01-30T00:18:51;100170.59;;;8.74;100.00
18988;BME280;5494;51.796;10.952;2024-01-30T00:21:20;100165.56;;;8.66;100.00
18988;BME280;5494;51.796;10.952;2024-01-30T00:23:49;100161.16;;;8.71;100.00
18988;BME280;5494;51.796;10.952;2024-01-30T00:26:17;100167.28;;;8.67;100.00
18988;BME280;5494;51.796;10.952;2024-01-30T00:28:46;100161.50;;;8.57;100.00
18988;BME280;5494;51.796;10.952;2024-01-30T00:31:14;100168.47;;;8.54;100.00
18988;BME280;5494;51.796;10.952;2024-01-30T00:33:43;100170.31;;;8.49;100.00
18988;BME280;5494;51.796;10.952;2024-01-30T00:36:11;100168.94;;;8.33;100.00
18988;BME280;5494;51.796;10.952;2024-01-30T00:38:39;100160.97;;;8.43;100.00
18988;BME280;5494;51.796;10.952;2024-01-30T00:41:09;100168.34;;;8.58;100.00
18988;BME280;5494;51.796;10.952;2024-01-30T00:43:37;100163.75;;;8.34;100.00
18988;BME280;5494;51.796;10.952;2024-01-30T00:46:05;100160.44;;;8.26;100.00
18988;BME280;5494;51.796;10.952;2024-01-30T00:48:33;100166.84;;;8.50;100.00
18988;BME280;5494;51.796;10.952;2024-01-30T00:51:02;100177.38;;;8.42;100.00
18988;BME280;5494;51.796;10.952;2024-01-30T00:53:30;100169.81;;;8.30;100.00
18988;BME280;5494;51.796;10.952;2024-01-30T00:55:58;100170.91;;;8.21;100.00
18988;BME280;5494;51.796;10.952;2024-01-30T00:58:27;100171.41;;;8.39;100.00
18988;BME280;5494;51.796;10.952;2024-01-30T01:00:55;100167.91;;;8.41;100.00
18988;BME280;5494;51.796;10.952;2024-01-30T01:03:23;100173.91;;;8.43;100.00
18988;BME280;5494;51.796;10.952;2024-01-30T01:05:52;100167.94;;;8.40;100.00
18988;BME280;5494;51.796;10.952;2024-01-30T01:08:20;100171.22;;;8.46;100.00
18988;BME280;5494;51.796;10.952;2024-01-30T01:10:47;100169.91;;;8.27;100.00
18988;BME280;5494;51.796;10.952;2024-01-30T01:13:15;100163.91;;;8.25;100.00
18988;BME280;5494;51.796;10.952;2024-01-30T01:15:45;100166.59;;;8.20;100.00
18988;BME280;5494;51.796;10.952;2024-01-30T01:18:13;100169.31;;;8.16;100.00
18988;BME280;5494;51.796;10.952;2024-01-30T01:20:41;100166.06;;;8.06;100.00
18988;BME280;5494;51.796;10.952;2024-01-30T01:23:09;100169.53;;;8.04;100.00
18988;BME280;5494;51.796;10.952;2024-01-30T01:25:37;100171.44;;;7.96;100.00
18988;BME280;5494;51.796;10.952;2024-01-30T01:28:06;100162.03;;;7.93;100.00
18988;BME280;5494;51.796;10.952;2024-01-30T01:30:34;100165.63;;;7.86;100.00
18988;BME280;5494;51.796;10.952;2024-01-30T01:33:04;100159.19;;;8.04;100.00
18988;BME280;5494;51.796;10.952;2024-01-30T01:35:33;100153.38;;;7.94;100.00
18988;BME280;5494;51.796;10.952;2024-01-30T01:38:01;100151.53;;;7.99;100.00
18988;BME280;5494;51.796;10.952;2024-01-30T01:40:30;100160.28;;;7.94;100.00
18988;BME280;5494;51.796;10.952;2024-01-30T01:42:58;100160.38;;;7.89;100.00
18988;BME280;5494;51.796;10.952;2024-01-30T01:45:26;100151.81;;;7.87;100.00
18988;BME280;5494;51.796;10.952;2024-01-30T01:47:54;100153.53;;;7.86;100.00
18988;BME280;5494;51.796;10.952;2024-01-30T01:50:24;100150.94;;;7.86;100.00
18988;BME280;5494;51.796;10.952;2024-01-30T01:52:53;100151.75;;;7.88;100.00
18988;BME280;5494;51.796;10.952;2024-01-30T01:55:22;100143.88;;;7.95;100.00
18988;BME280;5494;51.796;10.952;2024-01-30T01:57:53;100141.91;;;8.06;100.00
18988;BME280;5494;51.796;10.952;2024-01-30T02:00:22;100136.81;;;8.01;100.00
18988;BME280;5494;51.796;10.952;2024-01-30T02:02:53;100132.44;;;8.03;100.00
18988;BME280;5494;51.796;10.952;2024-01-30T02:05:23;100120.09;;;8.16;100.00
18988;BME280;5494;51.796;10.952;2024-01-30T02:07:52;100135.34;;;8.28;100.00
18988;BME280;5494;51.796;10.952;2024-01-30T02:10:22;100141.84;;;8.47;100.00
18988;BME280;5494;51.796;10.952;2024-01-30T02:12:50;100142.72;;;8.46;100.00
18988;BME280;5494;51.796;10.952;2024-01-30T02:15:18;100144.59;;;8.40;100.00
18988;BME280;5494;51.796;10.952;2024-01-30T02:17:46;100142.81;;;8.43;100.00
18988;BME280;5494;51.796;10.952;2024-01-30T02:20:14;100146.06;;;8.51;100.00
18988;BME280;5494;51.796;10.952;2024-01-30T02:22:45;100142.38;;;8.61;100.00
18988;BME280;5494;51.796;10.952;2024-01-30T02:25:13;100145.84;;;8.60;100.00
18988;BME280;5494;51.796;10.952;2024-01-30T02:27:41;100146.84;;;8.55;100.00
18988;BME280;5494;51.796;10.952;2024-01-30T02:30:11;100145.41;;;8.43;100.00
18988;BME280;5494;51.796;10.952;2024-01-30T02:32:39;100142.03;;;8.40;100.00
18988;BME280;5494;51.796;10.952;2024-01-30T02:35:07;100150.84;;;8.31;100.00
18988;BME280;5494;51.796;10.952;2024-01-30T02:37:35;100145.78;;;8.25;100.00
18988;BME280;5494;51.796;10.952;2024-01-30T02:40:06;100141.84;;;8.09;100.00
18988;BME280;5494;51.796;10.952;2024-01-30T02:42:37;100137.53;;;8.08;100.00
18988;BME280;5494;51.796;10.952;2024-01-30T02:45:07;100129.06;;;8.01;100.00
18988;BME280;5494;51.796;10.952;2024-01-30T02:47:35;100138.41;;;8.08;100.00
18988;BME280;5494;51.796;10.952;2024-01-30T02:50:04;100141.91;;;8.06;100.00
18988;BME280;5494;51.796;10.952;2024-01-30T02:52:32;100136.69;;;8.07;100.00
18988;BME280;5494;51.796;10.952;2024-01-30T02:55:01;100128.06;;;8.07;100.00
18988;BME280;5494;51.796;10.952;2024-01-30T02:57:30;100132.38;;;8.08;100.00
18988;BME280;5494;51.796;10.952;2024-01-30T02:59:59;100132.41;;;8.05;100.00
18988;BME280;5494;51.796;10.952;2024-01-30T03:02:27;100131.47;;;8.09;100.00
18988;BME280;5494;51.796;10.952;2024-01-30T03:04:55;100131.41;;;8.12;100.00
18988;BME280;5494;51.796;10.952;2024-01-30T03:07:23;100140.03;;;8.11;100.00
18988;BME280;5494;51.796;10.952;2024-01-30T03:09:51;100135.59;;;8.17;100.00
18988;BME280;5494;51.796;10.952;2024-01-30T03:12:19;100136.56;;;8.12;100.00
18988;BME280;5494;51.796;10.952;2024-01-30T03:14:48;100126.09;;;8.16;100.00
18988;BME280;5494;51.796;10.952;2024-01-30T03:17:17;100120.94;;;8.16;100.00
18988;BME280;5494;51.796;10.952;2024-01-30T03:19:46;100116.56;;;8.18;100.00
18988;BME280;5494;51.796;10.952;2024-01-30T03:22:14;100117.69;;;8.08;100.00
18988;BME280;5494;51.796;10.952;2024-01-30T03:24:42;100118.53;;;8.09;100.00
18988;BME280;5494;51.796;10.952;2024-01-30T03:27:10;100110.84;;;8.04;100.00
18988;BME280;5494;51.796;10.952;2024-01-30T03:29:39;100115.31;;;7.98;100.00
18988;BME280;5494;51.796;10.952;2024-01-30T03:32:08;100110.88;;;8.03;100.00
18988;BME280;5494;51.796;10.952;2024-01-30T03:34:36;100115.09;;;8.08;100.00
18988;BME280;5494;51.796;10.952;2024-01-30T03:37:04;100119.66;;;7.96;100.00
18988;BME280;5494;51.796;10.952;2024-01-30T03:39:32;100120.88;;;8.19;100.00
18988;BME280;5494;51.796;10.952;2024-01-30T03:42:00;100119.19;;;8.17;100.00
18988;BME280;5494;51.796;10.952;2024-01-30T03:44:28;100117.84;;;8.01;100.00
18988;BME280;5494;51.796;10.952;2024-01-30T03:46:56;100127.41;;;7.97;100.00
18988;BME280;5494;51.796;10.952;2024-01-30T03:49:25;100117.72;;;8.07;100.00
18988;BME280;5494;51.796;10.952;2024-01-30T03:51:53;100121.44;;;7.94;100.00
18988;BME280;5494;51.796;10.952;2024-01-30T03:54:21;100111.94;;;7.94;100.00
18988;BME280;5494;51.796;10.952;2024-01-30T03:56:49;100118.28;;;7.81;100.00
18988;BME280;5494;51.796;10.952;2024-01-30T03:59:17;100112.19;;;7.82;100.00
18988;BME280;5494;51.796;10.952;2024-01-30T04:01:50;100108.84;;;7.78;100.00
18988;BME280;5494;51.796;10.952;2024-01-30T04:04:19;100109.91;;;7.68;100.00
18988;BME280;5494;51.796;10.952;2024-01-30T04:06:48;100107.56;;;7.56;100.00
18988;BME280;5494;51.796;10.952;2024-01-30T04:09:16;100105.63;;;7.67;100.00
18988;BME280;5494;51.796;10.952;2024-01-30T04:11:45;100100.56;;;7.61;100.00
18988;BME280;5494;51.796;10.952;2024-01-30T04:14:13;100097.97;;;7.61;100.00
18988;BME280;5494;51.796;10.952;2024-01-30T04:16:41;100102.78;;;7.79;100.00
18988;BME280;5494;51.796;10.952;2024-01-30T04:19:09;100107.22;;;7.73;100.00
18988;BME280;5494;51.796;10.952;2024-01-30T04:21:37;100108.13;;;7.70;100.00
18988;BME280;5494;51.796;10.952;2024-01-30T04:24:07;100114.88;;;7.79;100.00
18988;BME280;5494;51.796;10.952;2024-01-30T04:26:35;100112.28;;;7.79;100.00
18988;BME280;5494;51.796;10.952;2024-01-30T04:29:03;100115.56;;;7.87;100.00
18988;BME280;5494;51.796;10.952;2024-01-30T04:31:31;100114.75;;;7.83;100.00
18988;BME280;5494;51.796;10.952;2024-01-30T04:33:59;100114.22;;;7.68;100.00
18988;BME280;5494;51.796;10.952;2024-01-30T04:36:27;100112.72;;;7.58;100.00
18988;BME280;5494;51.796;10.952;2024-01-30T04:38:55;100114.28;;;7.66;100.00
18988;BME280;5494;51.796;10.952;2024-01-30T04:41:24;100106.69;;;7.57;100.00
18988;BME280;5494;51.796;10.952;2024-01-30T04:43:52;100103.50;;;7.44;100.00
18988;BME280;5494;51.796;10.952;2024-01-30T04:46:20;100104.66;;;7.28;100.00
18988;BME280;5494;51.796;10.952;2024-01-30T04:48:48;100102.22;;;7.21;100.00
18988;BME280;5494;51.796;10.952;2024-01-30T04:51:17;100107.50;;;7.59;100.00
18988;BME280;5494;51.796;10.952;2024-01-30T04:53:45;100097.91;;;7.64;100.00
18988;BME280;5494;51.796;10.952;2024-01-30T04:56:13;100110.41;;;7.44;100.00
18988;BME280;5494;51.796;10.952;2024-01-30T04:58:42;100103.66;;;7.35;100.00
18988;BME280;5494;51.796;10.952;2024-01-30T05:01:15;100106.38;;;7.29;100.00
18988;BME280;5494;51.796;10.952;2024-01-30T05:03:43;100101.38;;;7.20;100.00
18988;BME280;5494;51.796;10.952;2024-01-30T05:06:12;100095.41;;;7.18;100.00
18988;BME280;5494;51.796;10.952;2024-01-30T05:08:40;100099.38;;;7.34;100.00
18988;BME280;5494;51.796;10.952;2024-01-30T05:11:08;100097.06;;;7.19;100.00
18988;BME280;5494;51.796;10.952;2024-01-30T05:13:37;100090.97;;;7.25;100.00
18988;BME280;5494;51.796;10.952;2024-01-30T05:16:07;100089.91;;;7.33;100.00
18988;BME280;5494;51.796;10.952;2024-01-30T05:18:35;100094.81;;;7.47;100.00
18988;BME280;5494;51.796;10.952;2024-01-30T05:21:04;100096.34;;;7.57;100.00
18988;BME280;5494;51.796;10.952;2024-01-30T05:23:32;100094.06;;;7.40;100.00
18988;BME280;5494;51.796;10.952;2024-01-30T05:26:00;100089.53;;;7.53;100.00
18988;BME280;5494;51.796;10.952;2024-01-30T05:28:29;100086.03;;;7.54;100.00
18988;BME280;5494;51.796;10.952;2024-01-30T05:30:57;100089.44;;;7.58;100.00
18988;BME280;5494;51.796;10.952;2024-01-30T05:33:26;100082.84;;;7.43;100.00
18988;BME280;5494;51.796;10.952;2024-01-30T05:35:54;100076.09;;;7.34;100.00
18988;BME280;5494;51.796;10.952;2024-01-30T05:38:22;100080.34;;;7.38;100.00
18988;BME280;5494;51.796;10.952;2024-01-30T05:40:50;100082.09;;;7.36;100.00
18988;BME280;5494;51.796;10.952;2024-01-30T05:43:18;100080.38;;;7.37;100.00
18988;BME280;5494;51.796;10.952;2024-01-30T05:45:46;100084.84;;;7.27;100.00
18988;BME280;5494;51.796;10.952;2024-01-30T05:48:14;100073.38;;;7.42;100.00
18988;BME280;5494;51.796;10.952;2024-01-30T05:50:44;100065.41;;;7.53;100.00
18988;BME280;5494;51.796;10.952;2024-01-30T05:53:12;100071.44;;;7.51;100.00
18988;BME280;5494;51.796;10.952;2024-01-30T05:55:40;100071.25;;;7.61;100.00
18988;BME280;5494;51.796;10.952;2024-01-30T05:58:08;100066.84;;;7.66;100.00
18988;BME280;5494;51.796;10.952;2024-01-30T06:00:36;100059.97;;;7.65;100.00
18988;BME280;5494;51.796;10.952;2024-01-30T06:03:04;100066.91;;;7.61;100.00
18988;BME280;5494;51.796;10.952;2024-01-30T06:05:33;100065.03;;;7.69;100.00
18988;BME280;5494;51.796;10.952;2024-01-30T06:08:04;100075.31;;;7.72;100.00
18988;BME280;5494;51.796;10.952;2024-01-30T06:10:32;100068.50;;;7.68;100.00
18988;BME280;5494;51.796;10.952;2024-01-30T06:13:00;100072.72;;;7.74;100.00
18988;BME280;5494;51.796;10.952;2024-01-30T06:15:28;100057.13;;;7.75;100.00
18988;BME280;5494;51.796;10.952;2024-01-30T06:17:57;100060.69;;;7.71;100.00
18988;BME280;5494;51.796;10.952;2024-01-30T06:20:25;100053.06;;;7.64;100.00
18988;BME280;5494;51.796;10.952;2024-01-30T06:22:53;100056.47;;;7.67;100.00
18988;BME280;5494;51.796;10.952;2024-01-30T06:25:22;100050.66;;;7.56;100.00
18988;BME280;5494;51.796;10.952;2024-01-30T06:27:50;100053.22;;;7.56;100.00
18988;BME280;5494;51.796;10.952;2024-01-30T06:30:18;100048.91;;;7.57;100.00
18988;BME280;5494;51.796;10.952;2024-01-30T06:32:46;100053.22;;;7.56;100.00
18988;BME280;5494;51.796;10.952;2024-01-30T06:35:15;100049.81;;;7.54;100.00
18988;BME280;5494;51.796;10.952;2024-01-30T06:37:44;100039.53;;;7.53;100.00
18988;BME280;5494;51.796;10.952;2024-01-30T06:40:16;100049.88;;;7.53;100.00
18988;BME280;5494;51.796;10.952;2024-01-30T06:42:45;100043.13;;;7.45;100.00
18988;BME280;5494;51.796;10.952;2024-01-30T06:45:14;100046.56;;;7.46;100.00
18988;BME280;5494;51.796;10.952;2024-01-30T06:47:42;100030.22;;;7.44;100.00
18988;BME280;5494;51.796;10.952;2024-01-30T06:50:10;100040.56;;;7.44;100.00
18988;BME280;5494;51.796;10.952;2024-01-30T06:52:38;100037.09;;;7.45;100.00
18988;BME280;5494;51.796;10.952;2024-01-30T06:55:07;100041.31;;;7.49;100.00
18988;BME280;5494;51.796;10.952;2024-01-30T06:57:35;100048.22;;;7.48;100.00
18988;BME280;5494;51.796;10.952;2024-01-30T07:00:06;100044.72;;;7.51;100.00
18988;BME280;5494;51.796;10.952;2024-01-30T07:02:35;100044.63;;;7.56;100.00
18988;BME280;5494;51.796;10.952;2024-01-30T07:05:03;100054.91;;;7.59;100.00
18988;BME280;5494;51.796;10.952;2024-01-30T07:07:31;100047.06;;;7.62;100.00
18988;BME280;5494;51.796;10.952;2024-01-30T07:10:00;100043.72;;;7.58;100.00
18988;BME280;5494;51.796;10.952;2024-01-30T07:12:30;100041.13;;;7.58;100.00
18988;BME280;5494;51.796;10.952;2024-01-30T07:14:58;100042.84;;;7.59;100.00
18988;BME280;5494;51.796;10.952;2024-01-30T07:17:28;100043.56;;;7.66;100.00
18988;BME280;5494;51.796;10.952;2024-01-30T07:19:56;100029.75;;;7.65;100.00
18988;BME280;5494;51.796;10.952;2024-01-30T07:22:24;100028.75;;;7.72;100.00
18988;BME280;5494;51.796;10.952;2024-01-30T07:24:52;100051.16;;;7.73;100.00
18988;BME280;5494;51.796;10.952;2024-01-30T07:27:20;100041.69;;;7.72;100.00
18988;BME280;5494;51.796;10.952;2024-01-30T07:29:49;100036.50;;;7.72;100.00
18988;BME280;5494;51.796;10.952;2024-01-30T07:32:17;100035.47;;;7.81;100.00
18988;BME280;5494;51.796;10.952;2024-01-30T07:34:46;100037.72;;;7.95;100.00
18988;BME280;5494;51.796;10.952;2024-01-30T07:37:32;100032.47;;;7.98;100.00
18988;BME280;5494;51.796;10.952;2024-01-30T07:40:01;100037.59;;;8.01;100.00
18988;BME280;5494;51.796;10.952;2024-01-30T07:42:31;100027.91;;;8.09;100.00
18988;BME280;5494;51.796;10.952;2024-01-30T07:45:00;100035.28;;;8.24;100.00
18988;BME280;5494;51.796;10.952;2024-01-30T07:47:28;100027.91;;;8.44;98.71
18988;BME280;5494;51.796;10.952;2024-01-30T07:49:57;100017.66;;;8.40;97.79
18988;BME280;5494;51.796;10.952;2024-01-30T07:52:25;100022.63;;;8.49;97.39
18988;BME280;5494;51.796;10.952;2024-01-30T07:54:53;100020.72;;;8.55;96.62
18988;BME280;5494;51.796;10.952;2024-01-30T07:57:22;100021.13;;;8.73;94.74
18988;BME280;5494;51.796;10.952;2024-01-30T07:59:50;100023.53;;;8.79;94.34
18988;BME280;5494;51.796;10.952;2024-01-30T08:02:18;100024.13;;;8.90;93.64
18988;BME280;5494;51.796;10.952;2024-01-30T08:04:46;100009.16;;;8.99;92.37
18988;BME280;5494;51.796;10.952;2024-01-30T08:07:17;100006.16;;;9.13;91.05
18988;BME280;5494;51.796;10.952;2024-01-30T08:09:45;100029.19;;;9.25;90.43
18988;BME280;5494;51.796;10.952;2024-01-30T08:12:13;100020.22;;;9.35;88.77
18988;BME280;5494;51.796;10.952;2024-01-30T08:14:42;100024.97;;;9.51;87.79
18988;BME280;5494;51.796;10.952;2024-01-30T08:17:10;100017.78;;;9.60;86.11
18988;BME280;5494;51.796;10.952;2024-01-30T08:19:38;100011.38;;;9.72;84.89
18988;BME280;5494;51.796;10.952;2024-01-30T08:22:06;100014.84;;;9.71;84.67
18988;BME280;5494;51.796;10.952;2024-01-30T08:24:35;100006.03;;;9.76;84.19
18988;BME280;5494;51.796;10.952;2024-01-30T08:27:04;100016.56;;;9.72;84.17
18988;BME280;5494;51.796;10.952;2024-01-30T08:29:32;100022.69;;;9.69;84.42
18988;BME280;5494;51.796;10.952;2024-01-30T08:32:00;100016.97;;;9.86;83.99
18988;BME280;5494;51.796;10.952;2024-01-30T08:34:28;100016.63;;;9.97;83.78
18988;BME280;5494;51.796;10.952;2024-01-30T08:36:56;100010.31;;;10.05;83.92
18988;BME280;5494;51.796;10.952;2024-01-30T08:39:24;99995.41;;;10.10;83.38
18988;BME280;5494;51.796;10.952;2024-01-30T08:41:53;99997.72;;;10.21;83.37
18988;BME280;5494;51.796;10.952;2024-01-30T08:44:21;100001.69;;;10.31;83.85
18988;BME280;5494;51.796;10.952;2024-01-30T08:46:49;100002.78;;;10.50;83.63
18988;BME280;5494;51.796;10.952;2024-01-30T08:49:17;99983.47;;;10.57;84.14
18988;BME280;5494;51.796;10.952;2024-01-30T08:51:46;100007.41;;;10.67;84.43
18988;BME280;5494;51.796;10.952;2024-01-30T08:54:14;100014.72;;;11.05;82.73
18988;BME280;5494;51.796;10.952;2024-01-30T08:56:42;100012.16;;;11.27;80.95
18988;BME280;5494;51.796;10.952;2024-01-30T08:59:11;100014.75;;;11.51;79.03
18988;BME280;5494;51.796;10.952;2024-01-30T09:01:39;100024.94;;;11.57;78.28
18988;BME280;5494;51.796;10.952;2024-01-30T09:04:21;100027.22;;;11.66;77.51
18988;BME280;5494;51.796;10.952;2024-01-30T09:06:52;100016.91;;;11.86;76.23
18988;BME280;5494;51.796;10.952;2024-01-30T09:09:20;100014.59;;;11.78;75.21
18988;BME280;5494;51.796;10.952;2024-01-30T09:11:48;100012.19;;;11.72;76.17
18988;BME280;5494;51.796;10.952;2024-01-30T09:14:17;100015.09;;;11.88;76.45
18988;BME280;5494;51.796;10.952;2024-01-30T09:16:46;100014.34;;;11.84;75.16
18988;BME280;5494;51.796;10.952;2024-01-30T09:19:16;100007.81;;;11.74;76.37
18988;BME280;5494;51.796;10.952;2024-01-30T09:21:44;100022.22;;;11.83;75.85
18988;BME280;5494;51.796;10.952;2024-01-30T09:24:12;100012.19;;;11.74;76.51
18988;BME280;5494;51.796;10.952;2024-01-30T09:26:40;100007.16;;;11.68;77.01
18988;BME280;5494;51.796;10.952;2024-01-30T09:29:09;99996.16;;;11.61;77.20
18988;BME280;5494;51.796;10.952;2024-01-30T09:31:38;100001.56;;;11.55;77.57
18988;BME280;5494;51.796;10.952;2024-01-30T09:34:06;99999.94;;;11.53;77.95
18988;BME280;5494;51.796;10.952;2024-01-30T09:36:34;100005.75;;;11.59;77.50
18988;BME280;5494;51.796;10.952;2024-01-30T09:39:02;100002.91;;;11.65;77.27
18988;BME280;5494;51.796;10.952;2024-01-30T09:41:32;100013.44;;;11.62;77.15
18988;BME280;5494;51.796;10.952;2024-01-30T09:44:05;100007.28;;;11.65;77.61
18988;BME280;5494;51.796;10.952;2024-01-30T09:46:38;100008.03;;;11.68;76.88
18988;BME280;5494;51.796;10.952;2024-01-30T09:49:08;100014.78;;;11.72;77.15
18988;BME280;5494;51.796;10.952;2024-01-30T09:51:38;100013.69;;;11.79;76.40
18988;BME280;5494;51.796;10.952;2024-01-30T09:54:09;100011.53;;;11.67;76.74
18988;BME280;5494;51.796;10.952;2024-01-30T09:56:37;100014.78;;;11.72;77.10
18988;BME280;5494;51.796;10.952;2024-01-30T09:59:05;100027.56;;;11.80;76.52
18988;BME280;5494;51.796;10.952;2024-01-30T10:01:35;100016.41;;;11.76;77.04
18988;BME280;5494;51.796;10.952;2024-01-30T10:04:07;100012.78;;;12.02;76.35
18988;BME280;5494;51.796;10.952;2024-01-30T10:06:35;100028.84;;;12.13;75.54
18988;BME280;5494;51.796;10.952;2024-01-30T10:09:03;100018.34;;;12.15;74.69
18988;BME280;5494;51.796;10.952;2024-01-30T10:11:31;100003.91;;;12.06;75.16
18988;BME280;5494;51.796;10.952;2024-01-30T10:14:00;100017.59;;;12.11;75.10
18988;BME280;5494;51.796;10.952;2024-01-30T10:16:29;100023.66;;;12.12;75.58
18988;BME280;5494;51.796;10.952;2024-01-30T10:18:57;100017.81;;;12.07;75.16
18988;BME280;5494;51.796;10.952;2024-01-30T10:21:26;99999.66;;;12.04;76.08
18988;BME280;5494;51.796;10.952;2024-01-30T10:23:54;100006.81;;;12.20;75.40
18988;BME280;5494;51.796;10.952;2024-01-30T10:26:22;99997.25;;;12.21;75.35
18988;BME280;5494;51.796;10.952;2024-01-30T10:28:50;99993.84;;;12.19;75.80
18988;BME280;5494;51.796;10.952;2024-01-30T10:31:18;99987.47;;;12.26;75.62
18988;BME280;5494;51.796;10.952;2024-01-30T10:33:47;99965.97;;;12.21;75.36
18988;BME280;5494;51.796;10.952;2024-01-30T10:36:17;99983.03;;;12.28;75.21
18988;BME280;5494;51.796;10.952;2024-01-30T10:38:51;99972.75;;;12.45;74.17
18988;BME280;5494;51.796;10.952;2024-01-30T10:41:27;99970.00;;;12.28;74.35
18988;BME280;5494;51.796;10.952;2024-01-30T10:44:10;99977.47;;;12.37;74.38
18988;BME280;5494;51.796;10.952;2024-01-30T10:46:42;99956.34;;;12.43;73.71
18988;BME280;5494;51.796;10.952;2024-01-30T10:49:12;99940.75;;;12.42;73.71
18988;BME280;5494;51.796;10.952;2024-01-30T10:51:42;99957.78;;;12.30;73.34
18988;BME280;5494;51.796;10.952;2024-01-30T10:54:13;99960.53;;;12.66;72.87
18988;BME280;5494;51.796;10.952;2024-01-30T10:56:42;99947.06;;;12.56;72.61
18988;BME280;5494;51.796;10.952;2024-01-30T10:59:11;99955.16;;;12.50;73.08
18988;BME280;5494;51.796;10.952;2024-01-30T11:01:40;99953.63;;;12.45;73.20
18988;BME280;5494;51.796;10.952;2024-01-30T11:04:10;99941.13;;;12.53;73.39
18988;BME280;5494;51.796;10.952;2024-01-30T11:06:41;99941.34;;;12.28;74.31
18988;BME280;5494;51.796;10.952;2024-01-30T11:09:12;99928.50;;;12.23;74.24
18988;BME280;5494;51.796;10.952;2024-01-30T11:11:51;99951.16;;;12.21;74.59
18988;BME280;5494;51.796;10.952;2024-01-30T11:14:25;99926.72;;;12.24;74.57
18988;BME280;5494;51.796;10.952;2024-01-30T11:16:57;99936.13;;;12.28;74.38
18988;BME280;5494;51.796;10.952;2024-01-30T11:19:26;99942.56;;;12.19;75.21
18988;BME280;5494;51.796;10.952;2024-01-30T11:21:55;99938.84;;;12.25;75.12
18988;BME280;5494;51.796;10.952;2024-01-30T11:24:25;99944.84;;;12.27;75.21
18988;BME280;5494;51.796;10.952;2024-01-30T11:26:56;99924.84;;;12.28;75.40
18988;BME280;5494;51.796;10.952;2024-01-30T11:29:25;99923.72;;;12.33;74.85
18988;BME280;5494;51.796;10.952;2024-01-30T11:31:54;99910.38;;;12.41;74.78
18988;BME280;5494;51.796;10.952;2024-01-30T11:34:22;99920.16;;;12.36;74.92
18988;BME280;5494;51.796;10.952;2024-01-30T11:36:53;99910.75;;;12.32;74.92
18988;BME280;5494;51.796;10.952;2024-01-30T11:39:28;99906.47;;;12.31;74.93
18988;BME280;5494;51.796;10.952;2024-01-30T11:41:58;99897.28;;;12.22;75.08
18988;BME280;5494;51.796;10.952;2024-01-30T11:44:26;99903.41;;;12.21;75.56
18988;BME280;5494;51.796;10.952;2024-01-30T11:46:54;99904.25;;;12.21;75.41
18988;BME280;5494;51.796;10.952;2024-01-30T11:49:23;99893.94;;;12.18;75.61
18988;BME280;5494;51.796;10.952;2024-01-30T11:51:52;99904.50;;;12.15;76.39
18988;BME280;5494;51.796;10.952;2024-01-30T11:54:21;99907.75;;;12.20;76.44
18988;BME280;5494;51.796;10.952;2024-01-30T11:56:50;99908.72;;;12.18;76.90
18988;BME280;5494;51.796;10.952;2024-01-30T11:59:18;99906.91;;;12.20;76.81
18988;BME280;5494;51.796;10.952;2024-01-30T12:01:46;99905.09;;;12.22;76.98
18988;BME280;5494;51.796;10.952;2024-01-30T12:04:15;99899.75;;;12.25;77.21
18988;BME280;5494;51.796;10.952;2024-01-30T12:06:43;99888.47;;;12.24;76.69
18988;BME280;5494;51.796;10.952;2024-01-30T12:09:11;99895.56;;;12.21;76.96
18988;BME280;5494;51.796;10.952;2024-01-30T12:11:44;99888.41;;;12.26;77.23
18988;BME280;5494;51.796;10.952;2024-01-30T12:14:14;99890.56;;;12.16;77.69
18988;BME280;5494;51.796;10.952;2024-01-30T12:16:43;99894.09;;;12.15;78.37
18988;BME280;5494;51.796;10.952;2024-01-30T12:19:11;99886.13;;;12.18;78.54
18988;BME280;5494;51.796;10.952;2024-01-30T12:21:39;99901.59;;;12.23;78.24
18988;BME280;5494;51.796;10.952;2024-01-30T12:24:07;99894.41;;;12.28;77.90
18988;BME280;5494;51.796;10.952;2024-01-30T12:26:35;99890.03;;;12.29;77.99
18988;BME280;5494;51.796;10.952;2024-01-30T12:29:04;99898.03;;;12.24;78.02
18988;BME280;5494;51.796;10.952;2024-01-30T12:31:33;99897.97;;;12.26;78.39
18988;BME280;5494;51.796;10.952;2024-01-30T12:34:01;99896.94;;;12.30;78.16
18988;BME280;5494;51.796;10.952;2024-01-30T12:36:30;99890.03;;;12.29;78.36
18988;BME280;5494;51.796;10.952;2024-01-30T12:38:58;99893.03;;;12.40;77.78
18988;BME280;5494;51.796;10.952;2024-01-30T12:41:27;99886.38;;;12.33;78.21
18988;BME280;5494;51.796;10.952;2024-01-30T12:43:57;99881.88;;;12.36;78.27
18988;BME280;5494;51.796;10.952;2024-01-30T12:46:28;99881.75;;;12.39;77.87
18988;BME280;5494;51.796;10.952;2024-01-30T12:48:57;99887.94;;;12.37;78.44
18988;BME280;5494;51.796;10.952;2024-01-30T12:51:26;99891.53;;;12.34;78.37
18988;BME280;5494;51.796;10.952;2024-01-30T12:53:54;99891.91;;;12.25;78.33
18988;BME280;5494;51.796;10.952;2024-01-30T12:56:22;99905.28;;;12.17;79.59
18988;BME280;5494;51.796;10.952;2024-01-30T12:58:51;99908.66;;;12.19;79.10
18988;BME280;5494;51.796;10.952;2024-01-30T13:01:21;99912.66;;;12.08;80.19